首页
METAR-TAF:

METAR-TAF

机场 :

卡迪夫機場

加的夫, 威尔士

纬度: 51-24N, 经度: 003-21W, 海拔: 67米

当前天气观测

该预报发布于29分钟前的17:50 UTC
风速6节,风向南转南东
温度 25°C
湿度 54%
气压 1012 hPa
能见度10公里或以上

METAR: EGFF 231750Z AUTO 15006KT 9999 NCD 25/15 Q1012

时间: 19:19 (18:19 UTC)

预报

该预报发布于1小时和25分钟前的16:54 UTC
预报有效从23日的 18点(UTC)到 24日的 18点(UTC)
风速8节,风向南转南东
能见度10公里或以上
少量云层高于4500英尺
短暂存在
从 23日的 18点(UTC)到 24日的 01点(UTC)
能見度: 6000
阵雨, 雷暴, 雨
几率 30% :
短暂存在
从 23日的 18点(UTC)到 24日的 01点(UTC)
风速15节,风向南转南东,有时为28节阵风
能見度: 3000
雷暴, (大) 小冰雹或雪球
成为
从 24日的 00点(UTC)到 24日的 03点(UTC)
风速12节,风向西
短暂存在
从 24日的 01点(UTC)到 24日的 12点(UTC)
能見度: 8000
多云层高于900英尺
几率 30% :
短暂存在
从 24日的 02点(UTC)到 24日的 06点(UTC)
能見度: 4000
多云层高于400英尺
小毛毛雨, 轻雾
成为
从 24日的 10点(UTC)到 24日的 12点(UTC)
风速3节,风向多变

TAF: EGFF 231654Z 2318/2418 15008KT 9999 FEW045 TEMPO 2318/2401 6000 SHRA TSRA PROB30 TEMPO 2318/2401 15015G28KT 3000 +TSGS BECMG 2400/2403 28012KT TEMPO 2401/2412 8000 BKN009 PROB30 TEMPO 2402/2406 4000 -DZ BR BKN004 BECMG 2410/2412 VRB03KT

超过4000个机场的气象观测和天气预报(METAR&TAF报告)。

可查询的气象台以黄色和红色小点在地图上表示。

将鼠标移到小点上方,可查看气象台名称。

然后点击查看天气观测和预报。

如需切换地图:点击带黑十字的绿色按钮放大地图;点击带横线的绿色按钮缩小地图;或者点击绿色箭头查看邻近地区的地图。


METAR-TAF: